createdAt,value
2019-06-08T00:00:07.999Z,99191.14
2019-06-08T00:02:36.399Z,99189.80
2019-06-08T00:05:06.547Z,99196.02
2019-06-08T00:07:35.007Z,99205.27
2019-06-08T00:10:06.186Z,99213.57
2019-06-08T00:12:34.603Z,99212.73
2019-06-08T00:15:03.470Z,99210.53
2019-06-08T00:17:38.507Z,99214.13
2019-06-08T00:20:02.058Z,99224.25
2019-06-08T00:22:30.429Z,99223.41
2019-06-08T00:24:59.005Z,99231.39
2019-06-08T00:27:27.358Z,99226.22
2019-06-08T00:29:55.763Z,99231.52
2019-06-08T00:32:24.577Z,99234.58
2019-06-08T00:34:53.155Z,99241.66
2019-06-08T00:37:22.699Z,99237.70
2019-06-08T00:39:51.388Z,99249.64
2019-06-08T00:42:21.221Z,99242.15
2019-06-08T00:44:49.678Z,99239.98
2019-06-08T00:47:18.503Z,99247.06
2019-06-08T00:49:46.959Z,99244.49
2019-06-08T00:52:15.351Z,99250.66
2019-06-08T00:54:43.749Z,99257.30
2019-06-08T00:57:12.187Z,99260.78
2019-06-08T00:59:40.580Z,99254.69
2019-06-08T01:02:08.979Z,99248.98
2019-06-08T01:04:37.422Z,99258.26
2019-06-08T01:07:05.821Z,99277.25
2019-06-08T01:09:34.290Z,99274.61
2019-06-08T01:12:02.722Z,99272.03
2019-06-08T01:14:31.162Z,99280.03
2019-06-08T01:16:59.537Z,99280.45
2019-06-08T01:19:29.646Z,99281.77
2019-06-08T01:21:58.215Z,99284.53
2019-06-08T01:24:27.832Z,99292.08
2019-06-08T01:26:56.388Z,99303.13
2019-06-08T01:29:26.218Z,99300.97
2019-06-08T01:31:54.676Z,99300.52
2019-06-08T01:34:23.085Z,99303.23
2019-06-08T01:36:51.481Z,99304.17
2019-06-08T01:39:21.116Z,99304.08
2019-06-08T01:41:49.759Z,99318.29
2019-06-08T01:44:18.150Z,99316.57
2019-06-08T01:46:46.537Z,99328.08
2019-06-08T01:49:15.029Z,99332.50
2019-06-08T01:51:43.430Z,99330.72
2019-06-08T01:54:11.837Z,99339.52
2019-06-08T01:56:40.232Z,99350.12
2019-06-08T01:59:08.630Z,99346.56
2019-06-08T02:01:37.026Z,99352.76
2019-06-08T02:04:05.519Z,99360.69
2019-06-08T02:06:34.704Z,99357.17
2019-06-08T02:09:04.801Z,99355.42
2019-06-08T02:11:33.225Z,99360.34
2019-06-08T02:14:01.634Z,99359.91
2019-06-08T02:16:31.129Z,99366.56
2019-06-08T02:18:59.752Z,99371.02
2019-06-08T02:21:28.841Z,99373.69
2019-06-08T02:23:57.310Z,99374.11
2019-06-08T02:26:27.533Z,99384.28
2019-06-08T02:28:56.153Z,99386.95
2019-06-08T02:31:24.534Z,99388.70
2019-06-08T02:33:52.971Z,99393.13
2019-06-08T02:36:21.343Z,99396.63
2019-06-08T02:38:49.731Z,99372.02
2019-06-08T02:41:18.226Z,99395.88
2019-06-08T02:43:46.776Z,99403.34
2019-06-08T02:46:15.188Z,99396.30
2019-06-08T02:49:02.679Z,99393.66
2019-06-08T02:51:14.264Z,99402.48
2019-06-08T02:53:42.718Z,99409.50
2019-06-08T02:56:14.312Z,99403.34
2019-06-08T02:58:43.636Z,99400.72
2019-06-08T03:01:13.038Z,99414.41
2019-06-08T03:03:41.995Z,99410.44
2019-06-08T03:06:10.406Z,99422.35
2019-06-08T03:08:41.286Z,99415.73
2019-06-08T03:11:09.034Z,99400.80
2019-06-08T03:13:38.413Z,99415.77
2019-06-08T03:16:07.553Z,99416.66
2019-06-08T03:18:38.080Z,99417.50
2019-06-08T03:21:06.133Z,99416.16
2019-06-08T03:23:36.166Z,99429.39
2019-06-08T03:26:04.990Z,99422.84
2019-06-08T03:28:35.553Z,99416.25
2019-06-08T03:31:03.489Z,99427.73
2019-06-08T03:33:34.606Z,99438.72
2019-06-08T03:36:02.006Z,99429.91
2019-06-08T03:38:30.402Z,99422.00
2019-06-08T03:40:59.422Z,99434.80
2019-06-08T03:43:27.808Z,99436.13
2019-06-08T03:45:56.202Z,99436.16
2019-06-08T03:48:24.610Z,99448.48
2019-06-08T03:50:53.008Z,99465.24
2019-06-08T03:53:21.403Z,99473.64
2019-06-08T03:55:49.823Z,99477.14
2019-06-08T03:58:18.226Z,99478.50
2019-06-08T04:00:47.558Z,99483.70
2019-06-08T04:03:16.762Z,99486.36
2019-06-08T04:05:46.530Z,99499.16
2019-06-08T04:08:15.180Z,99511.91
2019-06-08T04:10:44.377Z,99518.08
2019-06-08T04:13:13.710Z,99517.60
2019-06-08T04:15:44.135Z,99520.25
2019-06-08T04:18:12.260Z,99519.81
2019-06-08T04:20:42.781Z,99520.69
2019-06-08T04:23:10.777Z,99522.41
2019-06-08T04:25:40.617Z,99518.92
2019-06-08T04:28:09.317Z,99518.92
2019-06-08T04:30:38.729Z,99522.88
2019-06-08T04:33:07.226Z,99529.94
2019-06-08T04:35:35.860Z,99523.33
2019-06-08T04:38:04.245Z,99528.19
2019-06-08T04:40:32.660Z,99528.61
2019-06-08T04:43:01.067Z,99530.38
2019-06-08T04:45:29.449Z,99544.45
2019-06-08T04:47:57.867Z,99536.53
2019-06-08T04:50:26.588Z,99548.89
2019-06-08T04:52:54.974Z,99551.09
2019-06-08T04:55:23.432Z,99553.26
2019-06-08T04:57:51.897Z,99566.52
2019-06-08T05:00:20.752Z,99562.09
2019-06-08T05:02:51.130Z,99573.56
2019-06-08T05:05:19.364Z,99577.08
2019-06-08T05:07:49.705Z,99581.94
2019-06-08T05:10:17.880Z,99574.44
2019-06-08T05:12:47.695Z,99573.59
2019-06-08T05:15:16.470Z,99580.20
2019-06-08T05:17:45.402Z,99586.80
2019-06-08T05:20:15.815Z,99582.37
2019-06-08T05:22:45.565Z,99586.77
2019-06-08T05:25:14.251Z,99596.48
2019-06-08T05:27:43.367Z,99592.95
2019-06-08T05:30:12.471Z,99599.13
2019-06-08T05:32:41.414Z,99581.95
2019-06-08T05:35:10.014Z,99593.42
2019-06-08T05:37:39.462Z,99602.20
2019-06-08T05:40:08.577Z,99589.45
2019-06-08T05:42:36.979Z,99594.72
2019-06-08T05:45:09.193Z,99604.40
2019-06-08T05:47:37.668Z,99608.78
2019-06-08T05:50:07.514Z,99608.76
2019-06-08T05:52:35.927Z,99612.25
2019-06-08T05:55:06.902Z,99615.75
2019-06-08T05:57:35.301Z,99628.12
2019-06-08T06:00:09.040Z,99638.20
2019-06-08T06:02:35.616Z,99635.09
2019-06-08T06:05:05.941Z,99628.05
2019-06-08T06:07:35.384Z,99638.61
2019-06-08T06:10:04.780Z,99641.22
2019-06-08T06:12:33.180Z,99637.66
2019-06-08T06:15:01.570Z,99646.48
2019-06-08T06:17:29.985Z,99644.64
2019-06-08T06:19:58.377Z,99644.16
2019-06-08T06:22:26.760Z,99635.69
2019-06-08T06:24:55.182Z,99639.66
2019-06-08T06:27:23.563Z,99645.78
2019-06-08T06:29:52.124Z,99655.99
2019-06-08T06:32:20.553Z,99658.22
2019-06-08T06:34:49.916Z,99666.67
2019-06-08T06:37:18.322Z,99661.39
2019-06-08T06:39:48.054Z,99667.06
2019-06-08T06:42:16.520Z,99680.33
2019-06-08T06:44:47.032Z,99671.98
2019-06-08T06:47:15.916Z,99683.05
2019-06-08T06:49:44.601Z,99684.44
2019-06-08T06:52:12.934Z,99692.43
2019-06-08T06:54:42.700Z,99696.82
2019-06-08T06:57:11.269Z,99698.58
2019-06-08T06:59:39.657Z,99697.69
2019-06-08T07:02:08.078Z,99708.72
2019-06-08T07:04:36.467Z,99713.07
2019-06-08T07:07:04.887Z,99722.33
2019-06-08T07:09:33.314Z,99724.98
2019-06-08T07:12:01.711Z,99724.61
2019-06-08T07:14:30.381Z,99729.47
2019-06-08T07:16:58.799Z,99731.22
2019-06-08T07:19:27.191Z,99725.88
2019-06-08T07:21:55.590Z,99729.84
2019-06-08T07:24:24.008Z,99734.24
2019-06-08T07:26:52.514Z,99731.99
2019-06-08T07:29:20.885Z,99740.22
2019-06-08T07:31:50.309Z,99743.50
2019-06-08T07:34:19.494Z,99741.95
2019-06-08T07:36:49.361Z,99741.73
2019-06-08T07:39:18.098Z,99745.31
2019-06-08T07:41:47.437Z,99746.94
2019-06-08T07:44:16.689Z,99762.50
2019-06-08T07:46:45.089Z,99771.58
2019-06-08T07:49:14.271Z,99780.91
2019-06-08T07:51:57.622Z,99779.95
2019-06-08T07:54:12.821Z,99780.23
2019-06-08T07:56:41.227Z,99777.16
2019-06-08T07:59:09.619Z,99788.16
2019-06-08T08:01:38.058Z,99788.41
2019-06-08T08:04:06.470Z,99778.58
2019-06-08T08:06:34.869Z,99786.01
2019-06-08T08:09:05.170Z,99778.88
2019-06-08T08:11:33.583Z,99790.13
2019-06-08T08:14:01.974Z,99786.78
2019-06-08T08:16:30.422Z,99791.77
2019-06-08T08:18:59.715Z,99777.03
2019-06-08T08:21:29.546Z,99791.03
2019-06-08T08:24:01.381Z,99784.73
2019-06-08T08:26:31.335Z,99793.06
2019-06-08T08:29:01.331Z,99788.89
2019-06-08T08:31:28.763Z,99796.97
2019-06-08T08:34:03.340Z,99796.97
2019-06-08T08:36:29.094Z,99799.68
2019-06-08T08:39:00.461Z,99796.19
2019-06-08T08:41:27.970Z,99805.98
2019-06-08T08:44:01.875Z,99799.84
2019-06-08T08:46:28.562Z,99806.28
2019-06-08T08:49:05.995Z,99792.12
2019-06-08T08:51:27.903Z,99810.87
2019-06-08T08:54:03.044Z,99802.19
2019-06-08T08:56:28.016Z,99802.05
2019-06-08T08:58:59.228Z,99820.44
2019-06-08T09:01:28.765Z,99831.11
2019-06-08T09:04:00.947Z,99823.94
2019-06-08T09:06:27.970Z,99824.46
2019-06-08T09:09:00.840Z,99832.91
2019-06-08T09:11:28.788Z,99835.58
2019-06-08T09:14:01.401Z,99840.52
2019-06-08T09:16:28.781Z,99839.32
2019-06-08T09:19:01.120Z,99843.69
2019-06-08T09:21:28.101Z,99845.44
2019-06-08T09:24:00.761Z,99854.42
2019-06-08T09:26:28.815Z,99864.59
2019-06-08T09:28:58.283Z,99857.13
2019-06-08T09:31:28.074Z,99872.64
2019-06-08T09:34:08.557Z,99873.89
2019-06-08T09:36:28.738Z,99873.80
2019-06-08T09:38:59.619Z,99877.14
2019-06-08T09:41:30.837Z,99888.66
2019-06-08T09:44:00.558Z,99889.36
2019-06-08T09:46:28.074Z,99878.72
2019-06-08T09:49:00.461Z,99876.92
2019-06-08T09:51:28.507Z,99883.94
2019-06-08T09:54:00.642Z,99879.32
2019-06-08T09:56:28.262Z,99878.94
2019-06-08T09:59:01.264Z,99878.92
2019-06-08T10:01:28.592Z,99883.77
2019-06-08T10:04:00.860Z,99889.42
2019-06-08T10:06:27.339Z,99892.16
2019-06-08T10:08:56.360Z,99891.63
2019-06-08T10:11:24.935Z,99894.92
2019-06-08T10:13:54.476Z,99899.31
2019-06-08T10:16:23.077Z,99888.10
2019-06-08T10:18:51.685Z,99887.13
2019-06-08T10:21:21.058Z,99897.37
2019-06-08T10:23:49.922Z,99893.44
2019-06-08T10:26:18.629Z,99899.09
2019-06-08T10:28:48.233Z,99894.50
2019-06-08T10:31:17.642Z,99900.52
2019-06-08T10:33:48.173Z,99904.42
2019-06-08T10:36:18.322Z,99900.88
2019-06-08T10:38:48.029Z,99897.11
2019-06-08T10:41:21.093Z,99910.70
2019-06-08T10:43:48.194Z,99921.17
2019-06-08T10:46:20.566Z,99927.88
2019-06-08T10:48:48.616Z,99929.21
2019-06-08T10:51:18.377Z,99923.44
2019-06-08T10:53:52.109Z,99927.69
2019-06-08T10:56:18.867Z,99919.28
2019-06-08T10:58:49.805Z,99935.13
2019-06-08T11:01:18.819Z,99944.92
2019-06-08T11:03:48.947Z,99945.64
2019-06-08T11:06:18.845Z,99938.76
2019-06-08T11:08:47.553Z,99939.29
2019-06-08T11:11:19.597Z,99935.87
2019-06-08T11:13:50.044Z,99928.78
2019-06-08T11:16:18.028Z,99950.78
2019-06-08T11:18:50.608Z,99943.64
2019-06-08T11:21:18.740Z,99951.05
2019-06-08T11:24:04.654Z,99952.22
2019-06-08T11:26:20.984Z,99951.20
2019-06-08T11:28:48.282Z,99945.73
2019-06-08T11:31:19.520Z,99951.39
2019-06-08T11:33:49.010Z,99964.08
2019-06-08T11:36:18.938Z,99963.47
2019-06-08T11:38:47.850Z,99957.45
2019-06-08T11:41:18.985Z,99956.39
2019-06-08T11:43:46.544Z,99960.23
2019-06-08T11:46:18.355Z,99966.18
2019-06-08T11:48:45.115Z,99966.92
2019-06-08T11:51:13.502Z,99954.13
2019-06-08T11:53:41.868Z,99957.08
2019-06-08T11:56:13.277Z,99959.64
2019-06-08T11:58:40.410Z,99958.38
2019-06-08T12:01:13.288Z,99967.36
2019-06-08T12:03:39.871Z,99968.55
2019-06-08T12:06:10.489Z,99971.50
2019-06-08T12:08:38.407Z,99977.38
2019-06-08T12:11:11.591Z,99977.20
2019-06-08T12:13:37.015Z,99976.22
2019-06-08T12:16:05.491Z,99961.17
2019-06-08T12:18:33.915Z,99949.74
2019-06-08T12:21:03.698Z,99957.69
2019-06-08T12:23:32.601Z,99963.91
2019-06-08T12:26:01.133Z,99970.42
2019-06-08T12:28:29.523Z,99970.27
2019-06-08T12:31:00.871Z,99981.23
2019-06-08T12:33:28.544Z,99977.44
2019-06-08T12:35:58.429Z,99989.61
2019-06-08T12:38:30.021Z,99985.34
2019-06-08T12:40:58.725Z,99989.66
2019-06-08T12:43:28.389Z,99978.27
2019-06-08T12:45:58.029Z,99977.05
2019-06-08T12:48:28.714Z,99995.85
2019-06-08T12:50:56.791Z,99993.24
2019-06-08T12:53:25.178Z,99997.09
2019-06-08T12:55:53.651Z,99996.38
2019-06-08T12:58:22.149Z,99994.28
2019-06-08T13:00:50.643Z,99983.25
2019-06-08T13:03:19.054Z,99981.66
2019-06-08T13:05:47.472Z,99988.98
2019-06-08T13:08:15.861Z,99995.81
2019-06-08T13:10:45.109Z,100000.08
2019-06-08T13:13:14.481Z,100002.69
2019-06-08T13:15:43.211Z,100002.22
2019-06-08T13:18:12.428Z,100002.48
2019-06-08T13:20:41.772Z,100009.71
2019-06-08T13:23:11.518Z,100007.30
2019-06-08T13:25:43.670Z,100015.30
2019-06-08T13:28:14.306Z,100018.35
2019-06-08T13:30:40.265Z,100025.28
2019-06-08T13:33:09.905Z,100039.09
2019-06-08T13:35:39.449Z,100027.71
2019-06-08T13:38:08.711Z,100012.31
2019-06-08T13:40:39.794Z,100006.52
2019-06-08T13:43:08.128Z,100008.92
2019-06-08T13:45:39.065Z,99996.30
2019-06-08T13:48:09.006Z,100005.38
2019-06-08T13:50:37.065Z,100004.73
2019-06-08T13:53:05.542Z,100008.33
2019-06-08T13:55:48.380Z,100002.02
2019-06-08T13:58:04.094Z,100008.23
2019-06-08T14:00:38.433Z,99999.41
2019-06-08T14:03:08.671Z,100011.02
2019-06-08T14:05:38.943Z,100013.96
2019-06-08T14:08:10.619Z,100012.05
2019-06-08T14:10:41.569Z,100009.34
2019-06-08T14:13:10.330Z,100009.71
2019-06-08T14:15:38.718Z,100006.37
2019-06-08T14:18:08.847Z,100010.48
2019-06-08T14:20:38.564Z,100016.02
2019-06-08T14:23:09.173Z,100017.91
2019-06-08T14:25:47.916Z,100010.16
2019-06-08T14:28:07.842Z,100003.77
2019-06-08T14:30:37.730Z,100009.24
2019-06-08T14:33:08.334Z,100002.07
2019-06-08T14:35:36.922Z,100007.91
2019-06-08T14:38:05.386Z,100000.82
2019-06-08T14:40:33.811Z,100002.66
2019-06-08T14:43:02.205Z,100008.08
2019-06-08T14:45:31.179Z,100000.27
2019-06-08T14:47:59.716Z,100002.40
2019-06-08T14:50:30.735Z,100000.36
2019-06-08T14:52:59.302Z,99989.80
2019-06-08T14:55:33.205Z,99989.90
2019-06-08T14:57:58.118Z,99993.66
2019-06-08T15:00:27.809Z,99995.77
2019-06-08T15:02:58.972Z,100004.82
2019-06-08T15:05:30.504Z,100031.62
2019-06-08T15:07:58.219Z,100033.45
2019-06-08T15:10:29.399Z,100044.77
2019-06-08T15:12:57.842Z,100046.52
2019-06-08T15:15:28.905Z,100046.80
2019-06-08T15:17:58.263Z,100041.52
2019-06-08T15:20:26.755Z,100041.64
2019-06-08T15:22:55.166Z,100035.88
2019-06-08T15:25:24.702Z,100038.95
2019-06-08T15:27:53.138Z,100041.06
2019-06-08T15:30:23.004Z,100036.95
2019-06-08T15:32:51.446Z,100034.25
2019-06-08T15:35:21.057Z,100035.98
2019-06-08T15:37:49.579Z,100028.75
2019-06-08T15:40:18.275Z,100025.58
2019-06-08T15:42:48.223Z,100022.80
2019-06-08T15:45:18.276Z,100022.34
2019-06-08T15:47:48.502Z,100020.48
2019-06-08T15:50:17.953Z,100021.32
2019-06-08T15:52:48.139Z,100014.63
2019-06-08T15:55:19.045Z,100020.24
2019-06-08T15:57:46.791Z,100012.55
2019-06-08T16:00:15.355Z,100019.08
2019-06-08T16:02:43.757Z,100011.42
2019-06-08T16:05:12.215Z,100011.00
2019-06-08T16:07:40.623Z,100013.69
2019-06-08T16:10:09.652Z,100020.91
2019-06-08T16:12:38.054Z,100015.95
2019-06-08T16:15:08.070Z,100006.51
2019-06-08T16:17:36.464Z,100010.78
2019-06-08T16:20:06.100Z,100003.06
2019-06-08T16:22:35.692Z,100000.71
2019-06-08T16:25:06.776Z,100005.28
2019-06-08T16:27:35.991Z,99999.66
2019-06-08T16:30:09.495Z,99996.08
2019-06-08T16:32:36.712Z,100000.97
2019-06-08T16:37:33.512Z,100002.19
2019-06-08T16:40:02.164Z,100006.67
2019-06-08T16:42:30.564Z,100004.06
2019-06-08T16:44:58.981Z,100008.24
2019-06-08T16:47:27.450Z,100009.99
2019-06-08T16:49:55.851Z,100003.37
2019-06-08T16:52:24.286Z,100008.76
2019-06-08T16:54:52.684Z,100015.82
2019-06-08T16:57:21.079Z,100018.46
2019-06-08T16:59:49.523Z,100017.96
2019-06-08T17:02:17.958Z,100020.60
2019-06-08T17:04:46.356Z,100023.63
2019-06-08T17:07:14.769Z,100017.39
2019-06-08T17:09:43.234Z,100010.30
2019-06-08T17:12:11.782Z,100017.84
2019-06-08T17:14:40.630Z,100022.72
2019-06-08T17:17:09.296Z,100023.77
2019-06-08T17:19:38.421Z,100029.48
2019-06-08T17:22:07.076Z,100057.50
2019-06-08T17:24:36.702Z,100076.97
2019-06-08T17:27:05.138Z,100087.58
2019-06-08T17:29:34.779Z,100089.62
2019-06-08T17:32:03.297Z,100097.37
2019-06-08T17:34:31.849Z,100090.89
2019-06-08T17:37:00.192Z,100103.94
2019-06-08T17:39:29.598Z,100097.87
2019-06-08T17:41:58.038Z,100103.13
2019-06-08T17:44:26.451Z,100102.22
2019-06-08T17:46:54.848Z,100111.52
2019-06-08T17:49:23.240Z,100101.76
2019-06-08T17:51:51.656Z,100112.45
2019-06-08T17:54:20.049Z,100109.74
2019-06-08T17:56:48.738Z,100114.66
2019-06-08T17:59:17.158Z,100112.43
2019-06-08T18:01:45.555Z,100109.02
2019-06-08T18:04:14.189Z,100116.59
2019-06-08T18:06:43.414Z,100113.00
2019-06-08T18:09:12.842Z,100117.31
2019-06-08T18:11:43.540Z,100119.02
2019-06-08T18:14:12.355Z,100111.56
2019-06-08T18:16:42.205Z,100114.78
2019-06-08T18:19:28.315Z,100116.66
2019-06-08T18:22:02.940Z,100114.92
2019-06-08T18:24:28.001Z,100114.55
2019-06-08T18:26:59.167Z,100109.13
2019-06-08T18:29:27.837Z,100114.02
2019-06-08T18:31:58.194Z,100120.67
2019-06-08T18:34:28.473Z,100114.78
2019-06-08T18:36:57.892Z,100115.30
2019-06-08T18:39:28.623Z,100126.50
2019-06-08T18:41:59.101Z,100127.95
2019-06-08T18:44:28.598Z,100127.16
2019-06-08T18:46:57.708Z,100132.41
2019-06-08T18:49:28.777Z,100131.48
2019-06-08T18:51:58.331Z,100138.11
2019-06-08T18:54:27.855Z,100137.27
2019-06-08T18:56:56.745Z,100139.46
2019-06-08T18:59:25.145Z,100143.97
2019-06-08T19:01:53.545Z,100156.02
2019-06-08T19:04:21.959Z,100151.66
2019-06-08T19:06:50.493Z,100152.20
2019-06-08T19:09:18.955Z,100159.37
2019-06-08T19:11:48.707Z,100157.62
2019-06-08T19:14:20.607Z,100160.70
2019-06-08T19:16:54.173Z,100163.88
2019-06-08T19:19:18.274Z,100165.27
2019-06-08T19:21:50.229Z,100155.98
2019-06-08T19:24:18.315Z,100148.91
2019-06-08T19:26:47.762Z,100152.04
2019-06-08T19:29:19.428Z,100140.09
2019-06-08T19:31:51.163Z,100139.69
2019-06-08T19:34:19.698Z,100135.23
2019-06-08T19:36:54.177Z,100133.04
2019-06-08T19:39:20.370Z,100137.45
2019-06-08T19:41:52.837Z,100143.67
2019-06-08T19:44:21.242Z,100151.23
2019-06-08T19:46:52.491Z,100146.84
2019-06-08T19:49:19.838Z,100155.77
2019-06-08T19:51:52.456Z,100157.21
2019-06-08T19:54:18.653Z,100162.56
2019-06-08T19:56:49.366Z,100160.34
2019-06-08T19:59:18.356Z,100161.70
2019-06-08T20:01:51.394Z,100169.65
2019-06-08T20:04:18.309Z,100173.20
2019-06-08T20:06:48.083Z,100174.52
2019-06-08T20:09:17.502Z,100181.61
2019-06-08T20:11:49.420Z,100184.20
2019-06-08T20:14:15.982Z,100188.64
2019-06-08T20:16:44.701Z,100189.53
2019-06-08T20:19:13.184Z,100188.19
2019-06-08T20:21:42.822Z,100192.16
2019-06-08T20:24:11.309Z,100196.11
2019-06-08T20:26:39.702Z,100198.73
2019-06-08T20:29:13.650Z,100201.83
2019-06-08T20:31:38.980Z,100203.12
2019-06-08T20:34:07.743Z,100204.86
2019-06-08T20:36:37.558Z,100202.16
2019-06-08T20:39:08.205Z,100205.69
2019-06-08T20:41:37.626Z,100206.08
2019-06-08T20:44:08.463Z,100210.88
2019-06-08T20:46:37.800Z,100207.30
2019-06-08T20:49:08.409Z,100209.41
2019-06-08T20:51:37.501Z,100209.78
2019-06-08T20:54:07.956Z,100208.53
2019-06-08T20:56:37.211Z,100213.45
2019-06-08T20:59:08.030Z,100219.22
2019-06-08T21:01:35.854Z,100215.20
2019-06-08T21:04:04.315Z,100215.12
2019-06-08T21:06:32.762Z,100224.71
2019-06-08T21:09:01.158Z,100221.98
2019-06-08T21:11:29.884Z,100218.81
2019-06-08T21:13:58.325Z,100218.31
2019-06-08T21:16:27.664Z,100227.02
2019-06-08T21:18:57.959Z,100230.44
2019-06-08T21:21:28.345Z,100231.73
2019-06-08T21:24:00.804Z,100234.30
2019-06-08T21:26:26.816Z,100238.20
2019-06-08T21:28:56.638Z,100237.34
2019-06-08T21:31:25.627Z,100236.94
2019-06-08T21:33:55.648Z,100239.61
2019-06-08T21:36:24.161Z,100235.58
2019-06-08T21:38:55.366Z,100243.83
2019-06-08T21:41:23.087Z,100250.16
2019-06-08T21:43:54.280Z,100246.06
2019-06-08T21:46:21.646Z,100248.62
2019-06-08T21:48:51.564Z,100245.90
2019-06-08T21:51:20.167Z,100253.32
2019-06-08T21:53:50.068Z,100254.14
2019-06-08T21:56:18.917Z,100258.27
2019-06-08T21:58:49.740Z,100260.66
2019-06-08T22:01:18.098Z,100257.25
2019-06-08T22:03:47.178Z,100256.84
2019-06-08T22:06:17.581Z,100255.95
2019-06-08T22:08:47.987Z,100254.53
2019-06-08T22:11:17.691Z,100258.31
2019-06-08T22:13:47.627Z,100263.39
2019-06-08T22:16:16.329Z,100267.96
2019-06-08T22:18:44.726Z,100268.53
2019-06-08T22:21:13.136Z,100270.91
2019-06-08T22:23:41.525Z,100264.56
2019-06-08T22:26:09.922Z,100255.67
2019-06-08T22:28:38.345Z,100258.28
2019-06-08T22:31:07.962Z,100263.50
2019-06-08T22:33:37.800Z,100262.29
2019-06-08T22:36:08.915Z,100260.30
2019-06-08T22:38:37.325Z,100260.11
2019-06-08T22:41:07.868Z,100264.11
2019-06-08T22:43:37.450Z,100262.38
2019-06-08T22:46:08.287Z,100267.56
2019-06-08T22:48:38.424Z,100265.70
2019-06-08T22:51:08.124Z,100259.03
2019-06-08T22:53:38.395Z,100265.95
2019-06-08T22:56:07.889Z,100261.81
2019-06-08T22:58:37.293Z,100255.48
2019-06-08T23:01:08.680Z,100264.97
2019-06-08T23:03:36.179Z,100261.80
2019-06-08T23:06:06.418Z,100262.61
2019-06-08T23:08:37.318Z,100255.97
2019-06-08T23:11:05.720Z,100258.55
2019-06-08T23:13:37.503Z,100258.95
2019-06-08T23:16:06.244Z,100270.75
2019-06-08T23:18:37.367Z,100266.80
2019-06-08T23:21:06.596Z,100265.06
2019-06-08T23:23:38.099Z,100264.16
2019-06-08T23:26:10.185Z,100261.53
2019-06-08T23:28:37.697Z,100257.48
2019-06-08T23:31:19.728Z,100250.72
2019-06-08T23:33:38.702Z,100251.05
2019-06-08T23:36:39.260Z,100250.11
2019-06-08T23:38:37.682Z,100261.47
2019-06-08T23:41:08.716Z,100268.85
2019-06-08T23:43:38.317Z,100273.08
2019-06-08T23:46:06.323Z,100276.02
2019-06-08T23:48:37.299Z,100275.98
2019-06-08T23:51:07.738Z,100283.02
2019-06-08T23:53:34.982Z,100282.98
2019-06-08T23:56:04.332Z,100281.70
2019-06-08T23:58:33.682Z,100283.95
